This is the latest recevied weather packets stored in our database for station/object OE-11365. If no packets are shown the sender has not sent any weather packets the latest 10 day(s).
| Time | Temp. | Humidity | Pressure | Rain* | Wind** | Luminosity | Snow |
|---|---|---|---|---|---|---|---|
| 1787841703 | 30.56° C | 41% | 1011.5 hPa | 0 mm | - | 477 W/m² | - |
| 1787841331 | 30° C | 40% | 1011.6 hPa | 0 mm | - | 464 W/m² | - |
| 1787839904 | 30° C | 42% | 1011.7 hPa | 0 mm | - | 543 W/m² | - |
| 1787839531 | 30° C | 41% | 1011.8 hPa | 0 mm | - | 576 W/m² | - |
| 1787838931 | 30° C | 42% | 1012 hPa | 0 mm | - | 589 W/m² | - |
| 1787838104 | 29.44° C | 42% | 1012 hPa | 0 mm | - | 615 W/m² | - |
| 1787837731 | 29.44° C | 43% | 1012.1 hPa | 0 mm | - | 628 W/m² | - |
| 1787837131 | 29.44° C | 42% | 1012.2 hPa | 0 mm | - | 641 W/m² | - |
| 1787836304 | 29.44° C | 45% | 1012.2 hPa | 0 mm | - | 621 W/m² | - |
| 1787835930 | 29.44° C | 44% | 1012.2 hPa | 0 mm | - | 647 W/m² | - |
| 1787835331 | 28.89° C | 44% | 1012.4 hPa | 0 mm | - | 654 W/m² | - |
| 1787834504 | 28.89° C | 47% | 1012.6 hPa | 0 mm | - | 641 W/m² | - |
| 1787834130 | 28.33° C | 45% | 1012.9 hPa | 0 mm | - | 700 W/m² | - |
| 1787833531 | 28.33° C | 45% | 1013 hPa | 0 mm | - | 687 W/m² | - |
| 1787832704 | 28.33° C | 46% | 1013.1 hPa | 0 mm | - | 719 W/m² | - |
| 1787832331 | 27.78° C | 46% | 1013.1 hPa | 0 mm | - | 732 W/m² | - |
| 1787831730 | 28.33° C | 48% | 1013.3 hPa | 0 mm | - | 746 W/m² | - |
| 1787830904 | 27.78° C | 49% | 1013.5 hPa | 0 mm | - | 752 W/m² | - |
| 1787830530 | 27.22° C | 50% | 1013.9 hPa | 0 mm | - | 641 W/m² | - |
| 1787829930 | 26.67° C | 49% | 1014.1 hPa | 0 mm | - | 595 W/m² | - |
| 1787829104 | 26.67° C | 54% | 1014.1 hPa | 0 mm | - | 654 W/m² | - |
| 1787828731 | 26.11° C | 55% | 1014.3 hPa | 0 mm | - | 373 W/m² | - |
| 1787828131 | 25.56° C | 55% | 1014.3 hPa | 0 mm | - | 497 W/m² | - |
| 1787827303 | 26.11° C | 55% | 1014.2 hPa | 0 mm | - | 719 W/m² | - |
| 1787826930 | 25.56° C | 59% | 1014.4 hPa | 0 mm | - | 536 W/m² | - |
* Rain latest hour (hover to see other rain measurements)
** Current wind speed in m/s (hover to see current wind gust speed)